Time;durP1;ratioP1;P1;durP2;ratioP2;P2;SDS_P1;SDS_P2;PMS_P1;PMS_P2;Temp;Humidity;BMP_temperature;BMP_pressure;BME280_temperature;BME280_humidity;BME280_pressure;Samples;Min_cycle;Max_cycle;Signal;HPM_P1;HPM_P2
2023/03/15 00:01:03;;;;;;;8.40;3.57;;;3.10;99.90;;;;;;5078902;28;20468;-67
2023/03/15 00:03:30;;;;;;;8.17;4.37;;;3.10;99.90;;;;;;5077888;28;20536;-66
2023/03/15 00:05:58;;;;;;;14.53;4.00;;;3.20;99.90;;;;;;5077304;28;20465;-67
2023/03/15 00:08:25;;;;;;;8.43;3.40;;;3.10;99.90;;;;;;5077477;28;20776;-66
2023/03/15 00:10:53;;;;;;;10.80;3.60;;;3.20;99.90;;;;;;5077871;28;20451;-67
2023/03/15 00:13:21;;;;;;;11.80;4.37;;;3.20;99.90;;;;;;5078424;28;20468;-67
2023/03/15 00:15:50;;;;;;;12.50;4.13;;;3.20;99.90;;;;;;5077917;28;20466;-67
2023/03/15 00:18:18;;;;;;;12.37;4.10;;;3.20;99.90;;;;;;5077865;28;20922;-67
2023/03/15 00:20:46;;;;;;;14.27;4.70;;;3.10;99.90;;;;;;5077846;28;20457;-68
2023/03/15 00:23:13;;;;;;;6.70;3.63;;;3.00;99.90;;;;;;5076914;28;20489;-68
2023/03/15 00:25:41;;;;;;;10.03;4.10;;;3.00;99.90;;;;;;5077674;28;20472;-68
2023/03/15 00:28:08;;;;;;;9.20;3.93;;;3.00;99.90;;;;;;5077628;28;20457;-69
2023/03/15 00:30:37;;;;;;;9.77;3.83;;;2.90;99.90;;;;;;5076638;28;20585;-68
2023/03/15 00:33:05;;;;;;;7.70;3.80;;;2.90;99.90;;;;;;5077899;28;20904;-68
2023/03/15 00:35:33;;;;;;;10.90;4.27;;;3.00;99.90;;;;;;5076993;28;20519;-68
2023/03/15 00:38:00;;;;;;;9.60;4.73;;;3.00;99.90;;;;;;5077777;28;20519;-68
2023/03/15 00:40:27;;;;;;;10.60;4.97;;;3.00;99.90;;;;;;5077254;28;20769;-68
2023/03/15 00:42:56;;;;;;;10.47;5.57;;;2.90;99.90;;;;;;5077331;28;20497;-68
2023/03/15 00:45:23;;;;;;;14.93;5.73;;;2.90;99.90;;;;;;5077839;28;20894;-68
2023/03/15 00:47:53;;;;;;;15.80;4.90;;;3.00;99.90;;;;;;5077560;28;20476;-68
2023/03/15 00:50:20;;;;;;;14.00;6.43;;;3.00;1.00;;;;;;5077413;28;20895;-68
2023/03/15 00:52:47;;;;;;;13.50;5.63;;;3.00;1.00;;;;;;5077037;28;20759;-68
2023/03/15 00:55:17;;;;;;;12.40;6.30;;;2.90;1.00;;;;;;5077371;28;20503;-68
2023/03/15 00:57:46;;;;;;;8.00;5.37;;;2.90;1.00;;;;;;5077444;28;20776;-68
2023/03/15 01:00:16;;;;;;;9.53;6.40;;;2.80;1.00;;;;;;5077634;28;20461;-69
2023/03/15 01:02:43;;;;;;;18.83;6.80;;;2.80;1.00;;;;;;5077619;28;20485;-70
2023/03/15 01:05:13;;;;;;;15.30;6.97;;;2.70;1.00;;;;;;5080000;28;20462;-73
2023/03/15 01:07:40;;;;;;;9.50;6.00;;;2.70;48.00;;;;;;5079073;28;20446;-72
2023/03/15 01:10:09;;;;;;;19.27;6.80;;;2.50;99.90;;;;;;5077457;28;20457;-71
2023/03/15 01:12:36;;;;;;;9.80;6.23;;;2.30;99.90;;;;;;5077362;28;20470;-72
2023/03/15 01:15:07;;;;;;;9.60;6.60;;;2.10;1.00;;;;;;5077862;28;20893;-72
2023/03/15 01:17:35;;;;;;;12.33;6.43;;;2.00;1.00;;;;;;5077684;28;20556;-73
2023/03/15 01:20:04;;;;;;;9.87;6.20;;;1.90;99.90;;;;;;5037845;28;20459;-73
2023/03/15 01:22:32;;;;;;;12.97;5.90;;;1.80;99.10;;;;;;5037423;28;20499;-71
2023/03/15 01:24:59;;;;;;;8.83;6.40;;;1.80;1.00;;;;;;5038376;28;20466;-72
2023/03/15 01:27:27;;;;;;;9.17;5.80;;;1.70;1.00;;;;;;5038905;28;20463;-72
2023/03/15 01:29:54;;;;;;;8.40;6.07;;;1.70;99.90;;;;;;5038234;28;20467;-71
2023/03/15 01:32:21;;;;;;;8.80;5.37;;;1.70;94.90;;;;;;5038687;28;20462;-72
2023/03/15 01:34:49;;;;;;;10.17;6.63;;;1.70;99.90;;;;;;5038199;28;20467;-71
2023/03/15 01:37:16;;;;;;;8.70;5.97;;;1.70;1.00;;;;;;5038327;28;20471;-70
2023/03/15 01:39:45;;;;;;;10.20;6.57;;;1.70;1.00;;;;;;5038107;28;20467;-70
2023/03/15 01:42:13;;;;;;;9.10;5.90;;;1.70;1.00;;;;;;5037435;28;20491;-69
2023/03/15 01:44:51;;;;;;;10.20;5.90;;;1.70;77.00;;;;;;5036813;28;20470;-68
2023/03/15 01:47:18;;;;;;;8.50;6.17;;;1.70;99.90;;;;;;5036920;28;20470;-66
2023/03/15 01:49:50;;;;;;;8.73;5.57;;;1.60;99.90;;;;;;5036327;28;21206;-67
2023/03/15 01:52:21;;;;;;;7.03;5.40;;;1.60;99.90;;;;;;5036594;28;20459;-67
2023/03/15 01:54:54;;;;;;;7.27;5.73;;;1.50;99.90;;;;;;5036213;28;20468;-66
2023/03/15 01:57:26;;;;;;;8.33;5.20;;;1.50;99.90;;;;;;5037094;28;20471;-67
2023/03/15 01:59:57;;;;;;;8.47;5.70;;;1.60;99.90;;;;;;5036702;28;20751;-68
2023/03/15 02:02:26;;;;;;;7.47;5.93;;;1.60;99.90;;;;;;5037423;28;20494;-68
2023/03/15 02:04:58;;;;;;;12.50;5.30;;;1.50;99.90;;;;;;5036731;28;20534;-67
2023/03/15 02:07:33;;;;;;;8.10;5.43;;;1.50;99.90;;;;;;5039518;28;20525;-68
2023/03/15 02:10:05;;;;;;;7.80;5.27;;;1.50;99.90;;;;;;5040398;28;20528;-68
2023/03/15 02:12:36;;;;;;;5.87;4.90;;;1.50;99.90;;;;;;5040482;28;20459;-68
2023/03/15 02:15:07;;;;;;;6.77;5.53;;;1.50;99.90;;;;;;5040133;28;20477;-68
2023/03/15 02:17:36;;;;;;;11.60;5.17;;;1.50;99.90;;;;;;5040203;28;20467;-69
2023/03/15 02:20:16;;;;;;;8.03;5.80;;;1.50;99.90;;;;;;5079113;28;20802;-68
2023/03/15 02:22:51;;;;;;;6.13;5.40;;;1.50;99.90;;;;;;5080149;28;20488;-68
2023/03/15 02:25:26;;;;;;;7.73;5.70;;;1.50;99.90;;;;;;5080256;28;20472;-68
2023/03/15 02:27:55;;;;;;;10.73;6.37;;;1.50;99.90;;;;;;5080080;28;20465;-68
2023/03/15 02:30:22;;;;;;;6.20;5.47;;;1.50;99.90;;;;;;5080009;28;20469;-68
2023/03/15 02:32:50;;;;;;;8.23;6.37;;;1.40;99.90;;;;;;5080190;28;20457;-68
2023/03/15 02:35:24;;;;;;;9.10;6.77;;;1.40;99.90;;;;;;5079387;28;20462;-68
2023/03/15 02:37:52;;;;;;;8.03;6.47;;;1.40;99.90;;;;;;5079173;28;20471;-69
2023/03/15 02:40:21;;;;;;;10.80;7.37;;;1.50;99.90;;;;;;5079381;28;20465;-69
2023/03/15 02:42:54;;;;;;;8.17;6.67;;;1.50;99.90;;;;;;5080150;28;20485;-70
2023/03/15 02:45:23;;;;;;;16.10;7.10;;;1.60;99.90;;;;;;5079839;28;20469;-70
2023/03/15 02:47:51;;;;;;;10.03;7.50;;;1.60;99.90;;;;;;5079923;28;20870;-70
2023/03/15 02:50:19;;;;;;;8.83;7.90;;;1.60;99.90;;;;;;5079098;28;20461;-70
2023/03/15 02:52:46;;;;;;;11.77;8.20;;;1.60;99.90;;;;;;5079615;28;20472;-70
2023/03/15 02:55:13;;;;;;;9.93;9.03;;;1.60;99.90;;;;;;5079799;28;20619;-71
2023/03/15 02:57:40;;;;;;;13.93;7.90;;;1.70;99.90;;;;;;5079522;28;20498;-71
2023/03/15 03:00:13;;;;;;;11.83;7.47;;;1.60;99.90;;;;;;5079320;28;20463;-71
2023/03/15 03:02:43;;;;;;;11.00;8.70;;;1.70;99.90;;;;;;5079409;28;20820;-71
2023/03/15 03:05:11;;;;;;;10.10;9.07;;;1.70;99.90;;;;;;5080867;28;20460;-70
2023/03/15 03:07:38;;;;;;;13.10;8.13;;;1.70;99.90;;;;;;5081095;28;20461;-70
2023/03/15 03:10:07;;;;;;;13.80;8.30;;;1.70;99.90;;;;;;5082347;28;20469;-69
2023/03/15 03:12:34;;;;;;;10.90;8.83;;;1.70;99.90;;;;;;5081603;28;20466;-69
2023/03/15 03:15:03;;;;;;;11.00;9.43;;;1.70;99.90;;;;;;5081522;28;20469;-68
2023/03/15 03:17:36;;;;;;;10.27;9.03;;;1.80;99.90;;;;;;5079673;28;20875;-67
2023/03/15 03:20:08;;;;;;;13.20;9.93;;;1.80;99.90;;;;;;5067407;28;20581;-67
2023/03/15 03:22:36;;;;;;;11.00;9.53;;;1.80;99.90;;;;;;5079105;28;20469;-67
2023/03/15 03:25:03;;;;;;;16.90;9.70;;;1.80;99.90;;;;;;5080409;28;20514;-66
2023/03/15 03:27:30;;;;;;;15.67;10.87;;;1.90;99.90;;;;;;5079529;28;20504;-66
2023/03/15 03:29:58;;;;;;;16.40;10.97;;;1.90;99.90;;;;;;5079267;28;20465;-66
2023/03/15 03:32:25;;;;;;;13.40;11.17;;;1.90;99.90;;;;;;5079300;28;20465;-66
2023/03/15 03:34:53;;;;;;;12.03;10.63;;;1.90;99.90;;;;;;5079886;28;20754;-66
2023/03/15 03:37:22;;;;;;;15.93;10.90;;;1.90;99.90;;;;;;5079578;28;20510;-66
2023/03/15 03:39:49;;;;;;;20.00;12.97;;;1.90;99.90;;;;;;5079209;28;20461;-66
2023/03/15 03:42:16;;;;;;;16.90;12.30;;;2.00;99.90;;;;;;5078250;28;20750;-66
2023/03/15 03:44:43;;;;;;;23.23;14.10;;;2.00;99.90;;;;;;5078774;28;20485;-66
2023/03/15 03:47:10;;;;;;;21.73;13.80;;;1.90;99.90;;;;;;5079192;28;20763;-65
2023/03/15 03:49:37;;;;;;;17.43;12.50;;;2.00;99.90;;;;;;5079003;28;20467;-65
2023/03/15 03:52:05;;;;;;;20.10;12.20;;;2.00;99.90;;;;;;5079195;28;20472;-64
2023/03/15 03:54:33;;;;;;;17.50;12.67;;;2.00;99.90;;;;;;5078195;28;20471;-64
2023/03/15 03:57:00;;;;;;;15.17;12.00;;;2.00;99.90;;;;;;5079039;28;20775;-63
2023/03/15 03:59:28;;;;;;;16.87;13.00;;;2.10;99.90;;;;;;5079310;28;20457;-63
2023/03/15 04:01:55;;;;;;;15.83;11.70;;;2.00;99.90;;;;;;5078641;28;20465;-63
2023/03/15 04:04:25;;;;;;;13.00;10.40;;;2.00;99.90;;;;;;5078421;28;20493;-63
2023/03/15 04:06:53;;;;;;;17.60;12.50;;;1.90;99.90;;;;;;5078676;28;20466;-63
2023/03/15 04:09:20;;;;;;;14.93;12.17;;;1.80;99.90;;;;;;5078508;28;20530;-64
2023/03/15 04:11:49;;;;;;;17.03;12.17;;;1.80;99.90;;;;;;5067416;28;20466;-63
2023/03/15 04:14:16;;;;;;;15.43;9.90;;;1.70;99.90;;;;;;5057373;28;20462;-64
2023/03/15 04:16:43;;;;;;;13.00;8.67;;;1.70;99.90;;;;;;5058109;28;20440;-63
2023/03/15 04:19:11;;;;;;;12.57;8.93;;;1.60;99.90;;;;;;5061441;28;20489;-64
2023/03/15 04:21:38;;;;;;;10.30;8.50;;;1.60;99.90;;;;;;5077636;28;20469;-64
2023/03/15 04:24:06;;;;;;;9.63;7.80;;;1.50;99.90;;;;;;5077469;28;20527;-65
2023/03/15 04:26:33;;;;;;;6.90;5.80;;;1.50;99.90;;;;;;5077839;28;20514;-66
2023/03/15 04:29:03;;;;;;;7.37;5.73;;;1.50;99.90;;;;;;5077099;28;20799;-66
2023/03/15 04:31:36;;;;;;;5.60;5.00;;;1.40;99.90;;;;;;5076735;28;20956;-66
2023/03/15 04:34:04;;;;;;;4.83;4.17;;;1.30;99.90;;;;;;5077463;28;20541;-66
2023/03/15 04:36:31;;;;;;;9.03;5.20;;;1.40;99.90;;;;;;5078251;28;20953;-68
2023/03/15 04:39:04;;;;;;;14.30;11.87;;;1.40;99.90;;;;;;5077735;28;20461;-68
2023/03/15 04:41:33;;;;;;;15.57;11.50;;;1.40;99.90;;;;;;5077281;28;20514;-69
2023/03/15 04:44:03;;;;;;;11.53;9.10;;;1.50;99.90;;;;;;5077190;28;20528;-69
2023/03/15 04:46:31;;;;;;;10.73;9.63;;;1.50;99.90;;;;;;5077404;28;20458;-69
2023/03/15 04:48:59;;;;;;;11.47;9.50;;;1.50;99.90;;;;;;5078126;28;20564;-69
2023/03/15 04:51:27;;;;;;;12.53;9.90;;;1.40;99.90;;;;;;5077892;28;20755;-69
2023/03/15 04:53:54;;;;;;;10.00;9.00;;;1.50;99.90;;;;;;5077666;28;20882;-68
2023/03/15 04:56:22;;;;;;;9.87;8.87;;;1.50;99.90;;;;;;5075530;28;20468;-66
2023/03/15 04:58:49;;;;;;;9.70;7.67;;;1.50;99.90;;;;;;5075986;28;20467;-66
2023/03/15 05:01:18;;;;;;;8.43;7.60;;;1.60;99.90;;;;;;5074504;28;20461;-66
2023/03/15 05:03:45;;;;;;;8.50;7.70;;;1.50;99.90;;;;;;5077388;28;20945;-67
2023/03/15 05:06:37;;;;;;;7.73;6.93;;;1.60;99.90;;;;;;5076756;28;20465;-67
2023/03/15 05:09:06;;;;;;;8.00;7.20;;;1.60;99.90;;;;;;5077289;28;20469;-67
2023/03/15 05:11:42;;;;;;;9.07;7.60;;;1.50;99.90;;;;;;5076912;28;20469;-67
2023/03/15 05:14:10;;;;;;;8.20;7.30;;;1.50;99.90;;;;;;5076088;28;20841;-67
2023/03/15 05:16:39;;;;;;;7.97;6.80;;;1.50;99.90;;;;;;5075658;28;20799;-67
2023/03/15 05:19:11;;;;;;;9.43;8.00;;;1.50;99.90;;;;;;5074036;28;20592;-67
2023/03/15 05:21:43;;;;;;;8.10;7.30;;;1.60;99.90;;;;;;5076380;28;20519;-68
2023/03/15 05:24:11;;;;;;;8.00;7.20;;;1.60;99.90;;;;;;5076201;28;20489;-67
2023/03/15 05:26:38;;;;;;;9.10;7.40;;;1.60;99.90;;;;;;5075931;28;20469;-67
2023/03/15 05:29:05;;;;;;;8.20;7.23;;;1.60;99.90;;;;;;5075876;28;20528;-68
2023/03/15 05:31:36;;;;;;;8.60;7.70;;;1.60;99.90;;;;;;5076669;28;20767;-67
2023/03/15 05:34:08;;;;;;;9.87;8.40;;;1.60;99.90;;;;;;5074534;28;20518;-68
2023/03/15 05:36:37;;;;;;;9.83;8.83;;;1.60;99.90;;;;;;5071872;28;20469;-67
2023/03/15 05:39:07;;;;;;;9.00;8.10;;;1.60;99.90;;;;;;5075270;28;20461;-68
2023/03/15 05:41:35;;;;;;;9.93;7.70;;;1.50;99.90;;;;;;5075768;28;20510;-66
2023/03/15 05:44:03;;;;;;;10.90;9.30;;;1.50;99.90;;;;;;5078763;28;20481;-67
2023/03/15 05:46:31;;;;;;;10.60;8.70;;;1.60;99.90;;;;;;5077906;28;20492;-67
2023/03/15 05:49:00;;;;;;;12.77;8.93;;;1.60;99.90;;;;;;5079762;28;20465;-67
2023/03/15 05:51:31;;;;;;;11.23;8.83;;;1.60;99.90;;;;;;5079424;28;20799;-67
2023/03/15 05:53:59;;;;;;;9.50;8.10;;;1.60;99.90;;;;;;5079467;28;20795;-66
2023/03/15 05:56:26;;;;;;;10.77;8.60;;;1.60;99.90;;;;;;5079919;28;20461;-66
2023/03/15 05:58:53;;;;;;;9.70;8.40;;;1.60;99.90;;;;;;5079285;28;20790;-66
2023/03/15 06:01:20;;;;;;;11.97;9.83;;;1.50;99.90;;;;;;5079470;28;20465;-66
2023/03/15 06:03:48;;;;;;;11.73;9.67;;;1.50;99.90;;;;;;5079324;28;20485;-68
2023/03/15 06:06:18;;;;;;;13.23;9.93;;;1.50;99.90;;;;;;5079664;28;20477;-65
2023/03/15 06:08:48;;;;;;;12.67;10.47;;;1.50;99.90;;;;;;5080017;28;20457;-65
2023/03/15 06:11:21;;;;;;;15.40;10.23;;;1.40;99.90;;;;;;5077950;28;20762;-65
2023/03/15 06:13:48;;;;;;;14.07;10.50;;;1.40;99.90;;;;;;5077489;28;20548;-65
2023/03/15 06:16:15;;;;;;;13.90;11.43;;;1.40;99.90;;;;;;5078646;28;20466;-65
2023/03/15 06:18:43;;;;;;;14.10;10.63;;;1.40;99.90;;;;;;5078220;28;20496;-66
2023/03/15 06:21:11;;;;;;;15.90;12.20;;;1.40;99.90;;;;;;5076449;28;20460;-66
2023/03/15 06:23:38;;;;;;;15.33;11.43;;;1.50;99.90;;;;;;5078385;28;20782;-66
2023/03/15 06:26:07;;;;;;;17.90;12.10;;;1.50;99.90;;;;;;5078495;28;20457;-66
2023/03/15 06:28:34;;;;;;;16.07;11.03;;;1.60;99.90;;;;;;5077680;28;20453;-66
2023/03/15 06:31:08;;;;;;;18.00;12.83;;;1.50;99.90;;;;;;5076592;28;20480;-67
2023/03/15 06:33:35;;;;;;;18.10;12.63;;;1.50;99.90;;;;;;5078400;28;20469;-67
2023/03/15 06:36:02;;;;;;;16.93;12.03;;;1.60;99.90;;;;;;5078209;28;20461;-67
2023/03/15 06:38:30;;;;;;;17.93;12.70;;;1.60;99.90;;;;;;5078234;28;20439;-68
2023/03/15 06:40:57;;;;;;;21.30;14.60;;;1.60;99.90;;;;;;5076877;28;20454;-68
2023/03/15 06:43:29;;;;;;;20.43;13.70;;;1.60;99.90;;;;;;5076122;28;20457;-68
2023/03/15 06:45:58;;;;;;;18.30;13.70;;;1.60;99.90;;;;;;5074244;28;20464;-69
2023/03/15 06:48:26;;;;;;;21.40;14.03;;;1.60;99.90;;;;;;5077006;28;20749;-69
2023/03/15 06:50:53;;;;;;;23.07;15.27;;;1.70;99.90;;;;;;5071104;28;20475;-69
2023/03/15 06:53:21;;;;;;;20.20;13.50;;;1.70;99.90;;;;;;5076443;28;20888;-70
2023/03/15 06:55:49;;;;;;;20.77;14.23;;;1.60;99.90;;;;;;5077337;28;20461;-71
2023/03/15 06:58:17;;;;;;;23.47;15.20;;;1.70;99.90;;;;;;5078199;28;20519;-72
2023/03/15 07:00:47;;;;;;;21.80;14.93;;;1.70;99.90;;;;;;5077643;28;20500;-71
2023/03/15 07:03:14;;;;;;;19.70;13.93;;;1.70;99.90;;;;;;5076125;28;20789;-71
2023/03/15 07:05:41;;;;;;;23.43;15.00;;;1.70;99.90;;;;;;5078681;28;20805;-72
2023/03/15 07:08:08;;;;;;;22.17;16.53;;;1.70;99.90;;;;;;5079599;28;20450;-72
2023/03/15 07:10:35;;;;;;;24.13;15.70;;;1.70;99.90;;;;;;5079314;28;20462;-72
2023/03/15 07:13:03;;;;;;;23.50;16.10;;;1.70;99.90;;;;;;5078592;28;20470;-72
2023/03/15 07:15:31;;;;;;;29.40;15.97;;;1.70;99.90;;;;;;5078952;28;20738;-72
2023/03/15 07:17:59;;;;;;;22.10;15.07;;;1.70;99.90;;;;;;5077462;28;20454;-73
2023/03/15 07:20:39;;;;;;;24.80;17.57;;;1.70;99.90;;;;;;5075310;28;20461;-72
2023/03/15 07:23:06;;;;;;;23.67;17.03;;;1.70;99.90;;;;;;5074687;28;20952;-72
2023/03/15 07:25:33;;;;;;;29.03;19.23;;;1.80;99.90;;;;;;5077716;28;20575;-71
2023/03/15 07:28:00;;;;;;;23.63;16.57;;;1.90;99.90;;;;;;5077201;28;20443;-70
2023/03/15 07:30:27;;;;;;;25.50;17.17;;;1.80;99.90;;;;;;5077748;28;20881;-69
2023/03/15 07:32:55;;;;;;;23.97;15.63;;;1.80;99.90;;;;;;5077023;28;20492;-70
2023/03/15 07:35:23;;;;;;;26.77;18.30;;;1.80;99.90;;;;;;5077883;28;20766;-70
2023/03/15 07:37:50;;;;;;;24.93;17.30;;;1.70;99.90;;;;;;5076457;28;20457;-70
2023/03/15 07:40:18;;;;;;;28.50;18.10;;;1.90;99.90;;;;;;5078671;28;20457;-70
2023/03/15 07:42:45;;;;;;;24.67;15.87;;;1.90;99.90;;;;;;5078140;28;20514;-69
2023/03/15 07:45:12;;;;;;;27.10;17.83;;;2.00;99.90;;;;;;5078722;28;20492;-69
2023/03/15 07:47:39;;;;;;;26.40;18.00;;;2.00;99.90;;;;;;5074515;28;20476;-69
2023/03/15 07:50:07;;;;;;;26.80;17.87;;;2.00;99.90;;;;;;5078098;28;20492;-70
2023/03/15 07:52:36;;;;;;;24.87;16.57;;;2.10;99.90;;;;;;5078159;28;20731;-70
2023/03/15 07:55:07;;;;;;;34.00;18.57;;;2.20;99.90;;;;;;5077809;28;20453;-69
2023/03/15 07:57:34;;;;;;;27.83;17.70;;;2.10;99.90;;;;;;5077256;28;20547;-69
2023/03/15 08:00:01;;;;;;;27.60;17.20;;;2.50;99.90;;;;;;5076793;28;20468;-69
2023/03/15 08:02:29;;;;;;;27.30;17.87;;;2.80;99.90;;;;;;5076753;28;20569;-68
2023/03/15 08:04:57;;;;;;;30.63;16.97;;;3.10;99.90;;;;;;5075378;28;20493;-69
2023/03/15 08:07:24;;;;;;;27.60;17.67;;;3.00;99.90;;;;;;5075168;28;20493;-69
2023/03/15 08:09:53;;;;;;;25.10;16.60;;;2.90;99.90;;;;;;5074661;28;20477;-65
2023/03/15 08:12:20;;;;;;;21.33;15.07;;;2.70;99.90;;;;;;5075389;28;20467;-65
2023/03/15 08:14:47;;;;;;;23.10;17.53;;;2.60;99.90;;;;;;5075020;28;20461;-64
2023/03/15 08:17:15;;;;;;;23.10;15.97;;;2.40;99.90;;;;;;5077399;28;20465;-64
2023/03/15 08:19:42;;;;;;;27.63;16.43;;;2.50;99.90;;;;;;5077558;28;20946;-64
2023/03/15 08:22:09;;;;;;;25.30;16.97;;;2.80;99.90;;;;;;5077936;28;20527;-64
2023/03/15 08:24:37;;;;;;;23.13;15.90;;;3.40;99.90;;;;;;5077555;28;20488;-65
2023/03/15 08:27:06;;;;;;;24.03;15.90;;;3.60;99.90;;;;;;5061736;28;20454;-64
2023/03/15 08:29:33;;;;;;;25.27;16.67;;;3.80;99.90;;;;;;5077891;28;20824;-65
2023/03/15 08:32:00;;;;;;;24.53;16.27;;;3.90;99.90;;;;;;5077597;28;20468;-64
2023/03/15 08:34:27;;;;;;;22.63;15.40;;;4.30;99.90;;;;;;5077693;28;20464;-64
2023/03/15 08:36:54;;;;;;;26.33;16.23;;;4.70;99.90;;;;;;5077135;28;20913;-64
2023/03/15 08:39:23;;;;;;;21.63;15.00;;;4.30;34.70;;;;;;5078033;28;20858;-64
2023/03/15 08:41:50;;;;;;;19.03;14.63;;;4.00;99.90;;;;;;5076444;28;20600;-65
2023/03/15 08:44:19;;;;;;;20.17;15.00;;;4.00;99.90;;;;;;5076016;28;20460;-65
2023/03/15 08:46:46;;;;;;;23.33;16.40;;;4.20;58.80;;;;;;5076849;28;20468;-66
2023/03/15 08:49:13;;;;;;;21.63;16.03;;;4.70;99.90;;;;;;5076784;28;20465;-65
2023/03/15 08:51:40;;;;;;;20.80;13.37;;;5.00;99.90;;;;;;5075257;28;20468;-66
2023/03/15 08:54:07;;;;;;;15.13;12.13;;;5.00;4.60;;;;;;5076149;28;20465;-65
2023/03/15 08:56:35;;;;;;;20.17;14.80;;;4.60;1.00;;;;;;5077006;28;20468;-65
2023/03/15 08:59:02;;;;;;;15.73;14.07;;;4.90;1.00;;;;;;5076783;28;20464;-66
2023/03/15 09:01:31;;;;;;;21.70;14.40;;;4.70;1.00;;;;;;5075792;28;20470;-66
2023/03/15 09:03:58;;;;;;;19.23;12.23;;;4.50;1.00;;;;;;5077287;28;20465;-68
2023/03/15 09:06:25;;;;;;;14.33;11.07;;;4.30;1.00;;;;;;5077046;28;20500;-68
2023/03/15 09:08:53;;;;;;;17.27;13.60;;;4.20;1.00;;;;;;5060113;28;20481;-69
2023/03/15 09:11:20;;;;;;;14.97;11.10;;;4.20;1.00;;;;;;5059486;28;20683;-68
2023/03/15 09:13:48;;;;;;;14.70;12.13;;;4.10;1.00;;;;;;5076973;28;20548;-69
2023/03/15 09:16:15;;;;;;;17.10;12.63;;;3.80;1.00;;;;;;5076416;28;20454;-70
2023/03/15 09:18:44;;;;;;;19.27;12.07;;;4.00;1.00;;;;;;5076703;28;20504;-72
2023/03/15 09:21:11;;;;;;;18.40;11.80;;;4.00;1.00;;;;;;5076747;28;20465;-72
2023/03/15 09:23:38;;;;;;;14.57;11.57;;;4.20;1.00;;;;;;5075967;28;20500;-72
2023/03/15 09:26:06;;;;;;;15.07;10.53;;;4.20;1.00;;;;;;5073425;28;20503;-72
2023/03/15 09:28:33;;;;;;;15.57;10.93;;;4.00;1.00;;;;;;5075348;28;20461;-71
2023/03/15 09:31:05;;;;;;;20.47;13.00;;;4.00;1.00;;;;;;5073053;28;20480;-69
2023/03/15 09:33:45;;;;;;;17.00;9.93;;;4.90;13.70;;;;;;5074236;28;20500;-68
2023/03/15 09:36:12;;;;;;;15.27;10.70;;;5.30;1.00;;;;;;5074779;28;20942;-66
2023/03/15 09:38:40;;;;;;;10.90;8.80;;;5.80;1.00;;;;;;5075896;28;20461;-64
2023/03/15 09:41:19;;;;;;;15.93;9.73;;;6.10;1.00;;;;;;5075587;28;20568;-64
2023/03/15 09:44:01;;;;;;;16.17;9.30;;;6.60;1.00;;;;;;5075078;28;20518;-65
2023/03/15 09:46:30;;;;;;;11.40;9.63;;;6.70;1.00;;;;;;5073596;28;20509;-65
2023/03/15 09:49:04;;;;;;;12.90;9.47;;;7.20;1.00;;;;;;5073324;28;20465;-66
2023/03/15 09:51:38;;;;;;;10.57;7.90;;;7.50;1.00;;;;;;5074397;28;20468;-66
2023/03/15 09:54:11;;;;;;;11.27;8.00;;;7.40;1.00;;;;;;5073097;28;20787;-66
2023/03/15 09:56:44;;;;;;;15.30;9.37;;;7.70;1.00;;;;;;5071908;28;20906;-68
2023/03/15 09:59:14;;;;;;;12.90;8.63;;;8.10;1.00;;;;;;5074159;28;20894;-67
2023/03/15 10:01:42;;;;;;;11.63;9.00;;;8.40;1.00;;;;;;5073342;28;20449;-65
2023/03/15 10:04:20;;;;;;;10.93;7.93;;;9.00;1.00;;;;;;5073719;28;20469;-65
2023/03/15 10:06:53;;;;;;;9.40;8.03;;;9.70;1.00;;;;;;5074313;28;20948;-65
2023/03/15 10:09:23;;;;;;;9.97;7.73;;;9.70;1.00;;;;;;5073041;28;20457;-65
2023/03/15 10:11:59;;;;;;;9.87;6.80;;;9.00;1.00;;;;;;5075195;28;20846;-65
2023/03/15 10:14:38;;;;;;;12.53;7.33;;;8.50;1.00;;;;;;5075032;28;20463;-65
2023/03/15 10:17:11;;;;;;;10.30;6.20;;;8.80;1.00;;;;;;5071863;28;20476;-65
2023/03/15 10:19:48;;;;;;;15.03;6.60;;;9.60;1.00;;;;;;5069668;28;20933;-65
2023/03/15 10:22:23;;;;;;;11.40;6.60;;;9.00;1.00;;;;;;5073143;28;20464;-65
2023/03/15 10:24:54;;;;;;;7.77;6.67;;;8.80;1.00;;;;;;5074120;28;20453;-65
2023/03/15 10:27:25;;;;;;;11.30;6.10;;;8.50;1.00;;;;;;5075437;28;20471;-65
2023/03/15 10:29:56;;;;;;;9.37;6.97;;;8.40;1.00;;;;;;5078225;28;20465;-65
2023/03/15 10:32:27;;;;;;;10.40;7.30;;;8.50;1.00;;;;;;5078442;28;20889;-66
2023/03/15 10:34:57;;;;;;;16.00;7.20;;;8.20;1.00;;;;;;5078300;28;20874;-65
2023/03/15 10:37:25;;;;;;;11.97;7.60;;;7.50;99.90;;;;;;5077940;28;20461;-66
2023/03/15 10:39:56;;;;;;;11.33;7.33;;;6.80;99.90;;;;;;5077767;28;20465;-65
2023/03/15 10:42:33;;;;;;;10.13;6.53;;;6.70;99.90;;;;;;5078294;28;20461;-66
2023/03/15 10:45:13;;;;;;;10.07;6.80;;;6.90;99.90;;;;;;5076423;28;20489;-66
2023/03/15 10:47:43;;;;;;;11.90;7.17;;;7.00;99.90;;;;;;5075588;28;20838;-66
2023/03/15 10:50:18;;;;;;;10.90;7.47;;;7.00;1.00;;;;;;5077630;28;20863;-67
2023/03/15 10:52:46;;;;;;;10.80;6.40;;;7.70;1.00;;;;;;5078386;28;20441;-67
2023/03/15 10:55:16;;;;;;;8.83;5.77;;;8.70;1.00;;;;;;5078433;28;20473;-67
2023/03/15 10:57:53;;;;;;;9.27;5.90;;;9.40;1.00;;;;;;5077964;28;20457;-67
2023/03/15 11:00:29;;;;;;;10.33;6.37;;;9.50;1.00;;;;;;5075878;28;20506;-67
2023/03/15 11:03:05;;;;;;;9.23;6.60;;;10.30;1.00;;;;;;5074266;28;20560;-66
2023/03/15 11:05:41;;;;;;;11.83;6.23;;;9.90;99.90;;;;;;5072820;28;20485;-67
2023/03/15 11:08:13;;;;;;;12.30;6.50;;;10.50;1.00;;;;;;5074765;28;20460;-67
2023/03/15 11:10:40;;;;;;;9.17;6.33;;;10.00;99.90;;;;;;5076262;28;20854;-67
2023/03/15 11:13:13;;;;;;;10.50;6.73;;;9.20;99.90;;;;;;5078027;28;20457;-66
2023/03/15 11:15:47;;;;;;;7.63;5.80;;;8.70;99.90;;;;;;5074748;28;20454;-66
2023/03/15 11:18:18;;;;;;;10.70;5.83;;;8.90;99.90;;;;;;5076496;28;20512;-67
2023/03/15 11:20:48;;;;;;;8.10;6.10;;;8.90;99.90;;;;;;5077865;28;20771;-67
2023/03/15 11:23:18;;;;;;;8.00;6.60;;;8.20;99.90;;;;;;5077219;28;20465;-67
2023/03/15 11:25:45;;;;;;;7.17;6.03;;;8.00;99.90;;;;;;5076943;28;20493;-66
2023/03/15 11:28:18;;;;;;;12.13;6.60;;;7.60;99.90;;;;;;5076205;28;20890;-67
2023/03/15 11:30:47;;;;;;;10.50;5.77;;;7.40;99.90;;;;;;5077653;28;20461;-66
2023/03/15 11:33:33;;;;;;;7.60;5.63;;;7.00;99.90;;;;;;5077703;28;20890;-66
2023/03/15 11:36:05;;;;;;;6.70;4.60;;;7.70;99.90;;;;;;5076641;28;20457;-66
2023/03/15 11:38:36;;;;;;;8.20;5.80;;;8.50;99.90;;;;;;5071176;28;20465;-66
2023/03/15 11:41:14;;;;;;;8.37;5.33;;;9.50;99.90;;;;;;5073397;28;20481;-65
2023/03/15 11:43:51;;;;;;;8.20;5.30;;;10.50;99.90;;;;;;5072455;28;20506;-64
2023/03/15 11:46:25;;;;;;;9.13;5.00;;;11.40;99.90;;;;;;5074732;28;20948;-63
2023/03/15 11:48:58;;;;;;;8.00;5.53;;;12.00;99.90;;;;;;5075394;28;20945;-63
2023/03/15 11:51:36;;;;;;;6.63;4.80;;;11.20;99.90;;;;;;5074048;28;20963;-62
2023/03/15 11:54:12;;;;;;;11.93;5.83;;;11.20;99.90;;;;;;5074168;28;20510;-62
2023/03/15 11:56:52;;;;;;;6.90;4.83;;;11.80;99.90;;;;;;5073779;28;20465;-63
2023/03/15 11:59:28;;;;;;;8.10;5.67;;;11.00;99.90;;;;;;5073449;28;20458;-63
2023/03/15 12:02:00;;;;;;;6.53;5.00;;;9.40;99.90;;;;;;5074302;28;20465;-63
2023/03/15 12:04:44;;;;;;;6.53;4.80;;;9.10;99.90;;;;;;5074084;28;20457;-63
2023/03/15 12:07:38;;;;;;;6.57;4.03;;;7.90;99.90;;;;;;5071018;28;20500;-63
2023/03/15 12:10:44;;;;;;;8.40;4.10;;;8.20;99.90;;;;;;5073156;28;20477;-63
2023/03/15 12:13:20;;;;;;;7.23;3.70;;;7.90;99.90;;;;;;5075914;28;20463;-63
2023/03/15 12:15:49;;;;;;;5.90;3.83;;;8.70;99.90;;;;;;5074340;28;20450;-63
2023/03/15 12:18:24;;;;;;;5.43;2.90;;;9.80;99.90;;;;;;5074441;28;20491;-63
2023/03/15 12:20:57;;;;;;;6.67;2.57;;;10.60;99.90;;;;;;5074649;28;20456;-64
2023/03/15 12:23:41;;;;;;;9.03;3.60;;;10.80;99.90;;;;;;5073705;28;20466;-63
2023/03/15 12:26:15;;;;;;;5.53;2.80;;;11.00;99.90;;;;;;5074187;28;20488;-64
2023/03/15 12:28:50;;;;;;;4.83;2.80;;;11.50;99.90;;;;;;5074360;28;20881;-64
2023/03/15 12:31:17;;;;;;;6.40;3.60;;;11.10;99.90;;;;;;5074793;28;20465;-64
2023/03/15 12:33:48;;;;;;;3.77;3.07;;;11.10;99.90;;;;;;5076227;28;20449;-63
2023/03/15 12:36:35;;;;;;;5.80;4.20;;;10.80;99.90;;;;;;5075875;28;20445;-63
2023/03/15 12:39:21;;;;;;;4.27;3.23;;;11.60;99.90;;;;;;5073571;28;20489;-63
2023/03/15 12:41:50;;;;;;;5.97;3.50;;;12.70;99.90;;;;;;5076961;28;20473;-63
2023/03/15 12:44:38;;;;;;;10.90;4.00;;;12.50;99.90;;;;;;5077183;28;20489;-63
2023/03/15 12:47:07;;;;;;;4.43;3.03;;;11.60;99.90;;;;;;5077567;28;20525;-63
2023/03/15 12:49:37;;;;;;;5.63;3.00;;;10.90;99.90;;;;;;5077157;28;20870;-63
2023/03/15 12:52:06;;;;;;;3.87;3.13;;;10.60;99.90;;;;;;5071252;28;20469;-63
2023/03/15 12:54:42;;;;;;;7.77;4.10;;;10.60;99.90;;;;;;5076104;28;20468;-63
2023/03/15 12:57:12;;;;;;;5.40;3.33;;;10.20;99.90;;;;;;5077285;28;20460;-63
2023/03/15 12:59:47;;;;;;;4.73;4.33;;;9.50;99.90;;;;;;5076521;28;20465;-63
2023/03/15 13:02:31;;;;;;;5.73;3.40;;;9.80;99.90;;;;;;5075429;28;20874;-63